createdAt,value
2022-08-11T00:00:10.462Z,19.90
2022-08-11T00:01:10.433Z,19.89
2022-08-11T00:02:14.983Z,19.81
2022-08-11T00:03:11.444Z,19.77
2022-08-11T00:04:10.431Z,19.74
2022-08-11T00:05:10.421Z,19.72
2022-08-11T00:06:10.366Z,19.67
2022-08-11T00:07:10.364Z,19.64
2022-08-11T00:08:10.329Z,19.64
2022-08-11T00:09:10.331Z,19.63
2022-08-11T00:10:10.320Z,19.60
2022-08-11T00:11:10.335Z,19.60
2022-08-11T00:12:10.273Z,19.62
2022-08-11T00:13:10.281Z,19.64
2022-08-11T00:14:10.252Z,19.66
2022-08-11T00:15:10.272Z,19.67
2022-08-11T00:16:10.224Z,19.62
2022-08-11T00:17:10.214Z,19.62
2022-08-11T00:18:10.194Z,19.59
2022-08-11T00:19:10.192Z,19.57
2022-08-11T00:20:14.462Z,19.56
2022-08-11T00:21:11.163Z,19.56
2022-08-11T00:22:10.163Z,19.55
2022-08-11T00:23:10.125Z,19.49
2022-08-11T00:24:10.123Z,19.45
2022-08-11T00:25:10.139Z,19.41
2022-08-11T00:26:10.095Z,19.39
2022-08-11T00:27:10.085Z,19.34
2022-08-11T00:28:10.054Z,19.32
2022-08-11T00:29:10.058Z,19.26
2022-08-11T00:30:10.043Z,19.26
2022-08-11T00:31:10.040Z,19.23
2022-08-11T00:32:10.210Z,19.22
2022-08-11T00:33:09.985Z,19.22
2022-08-11T00:34:09.975Z,19.22
2022-08-11T00:35:53.751Z,19.20
2022-08-11T00:36:10.945Z,19.12
2022-08-11T00:37:09.939Z,19.09
2022-08-11T00:38:09.925Z,19.07
2022-08-11T00:39:09.972Z,19.05
2022-08-11T00:40:09.915Z,18.98
2022-08-11T00:41:09.887Z,18.96
2022-08-11T00:42:09.865Z,18.91
2022-08-11T00:43:10.647Z,18.91
2022-08-11T00:44:10.836Z,18.94
2022-08-11T00:45:09.854Z,18.91
2022-08-11T00:46:09.816Z,18.88
2022-08-11T00:47:09.798Z,18.86
2022-08-11T00:48:09.785Z,18.85
2022-08-11T00:49:11.810Z,18.82
2022-08-11T00:50:09.781Z,18.82
2022-08-11T00:51:09.749Z,18.83
2022-08-11T00:52:09.728Z,18.83
2022-08-11T00:53:09.755Z,18.82
2022-08-11T00:54:09.719Z,18.83
2022-08-11T00:55:09.830Z,18.81
2022-08-11T00:56:09.679Z,18.81
2022-08-11T00:57:36.978Z,18.81
2022-08-11T00:58:10.648Z,18.83
2022-08-11T00:59:32.208Z,18.85
2022-08-11T01:00:10.637Z,18.85
2022-08-11T01:01:09.726Z,18.82
2022-08-11T01:02:09.588Z,18.82
2022-08-11T01:03:09.578Z,18.81
2022-08-11T01:04:09.571Z,18.81
2022-08-11T01:05:09.569Z,18.81
2022-08-11T01:06:09.536Z,18.82
2022-08-11T01:07:09.529Z,18.83
2022-08-11T01:08:09.537Z,18.83
2022-08-11T01:09:09.504Z,18.83
2022-08-11T01:10:10.501Z,18.82
2022-08-11T01:11:09.473Z,18.81
2022-08-11T01:12:09.450Z,18.79
2022-08-11T01:13:09.479Z,18.76
2022-08-11T01:14:09.429Z,18.76
2022-08-11T01:15:09.421Z,18.78
2022-08-11T01:16:09.427Z,18.76
2022-08-11T01:17:09.555Z,18.73
2022-08-11T01:18:09.390Z,18.67
2022-08-11T01:19:09.361Z,18.61
2022-08-11T01:20:48.123Z,18.60
2022-08-11T01:21:10.351Z,18.60
2022-08-11T01:22:13.960Z,18.63
2022-08-11T01:23:09.313Z,18.64
2022-08-11T01:24:09.301Z,18.66
2022-08-11T01:25:09.291Z,18.66
2022-08-11T01:26:09.289Z,18.66
2022-08-11T01:27:18.871Z,18.63
2022-08-11T01:28:10.243Z,18.61
2022-08-11T01:29:09.221Z,18.60
2022-08-11T01:30:09.221Z,18.53
2022-08-11T01:31:09.205Z,18.52
2022-08-11T01:32:09.264Z,18.51
2022-08-11T01:33:09.189Z,18.51
2022-08-11T01:34:09.160Z,18.51
2022-08-11T01:35:09.140Z,18.46
2022-08-11T01:36:09.151Z,18.45
2022-08-11T01:37:09.103Z,18.46
2022-08-11T01:38:09.102Z,18.48
2022-08-11T01:39:09.152Z,18.46
2022-08-11T01:40:09.072Z,18.49
2022-08-11T01:41:09.073Z,18.48
2022-08-11T01:42:09.051Z,18.49
2022-08-11T01:43:09.023Z,18.49
2022-08-11T01:44:12.722Z,18.48
2022-08-11T01:45:09.039Z,18.46
2022-08-11T01:46:09.004Z,18.46
2022-08-11T01:47:08.982Z,18.48
2022-08-11T01:48:08.971Z,18.49
2022-08-11T01:50:05.870Z,18.48
2022-08-11T01:50:10.761Z,18.49
2022-08-11T01:51:08.933Z,18.51
2022-08-11T01:52:09.905Z,18.49
2022-08-11T01:53:08.896Z,18.51
2022-08-11T01:54:08.935Z,18.51
2022-08-11T01:55:08.863Z,18.45
2022-08-11T01:56:08.875Z,18.41
2022-08-11T01:57:08.834Z,18.39
2022-08-11T01:58:08.854Z,18.41
2022-08-11T01:59:08.815Z,18.39
2022-08-11T02:00:08.813Z,18.36
2022-08-11T02:01:08.886Z,18.34
2022-08-11T02:02:08.773Z,18.36
2022-08-11T02:03:08.777Z,18.28
2022-08-11T02:04:08.775Z,18.26
2022-08-11T02:05:08.714Z,18.23
2022-08-11T02:06:08.723Z,18.24
2022-08-11T02:07:08.821Z,18.24
2022-08-11T02:08:08.695Z,18.21
2022-08-11T02:09:08.707Z,18.21
2022-08-11T02:10:08.693Z,18.19
2022-08-11T02:11:08.643Z,18.19
2022-08-11T02:12:08.682Z,18.18
2022-08-11T02:13:08.616Z,18.16
2022-08-11T02:14:08.613Z,18.12
2022-08-11T02:15:08.622Z,18.12
2022-08-11T02:16:08.599Z,18.12
2022-08-11T02:17:08.595Z,18.09
2022-08-11T02:18:08.557Z,18.06
2022-08-11T02:19:08.547Z,18.05
2022-08-11T02:20:08.529Z,18.05
2022-08-11T02:21:08.558Z,18.06
2022-08-11T02:22:08.516Z,18.06
2022-08-11T02:23:08.487Z,18.06
2022-08-11T02:24:08.476Z,18.03
2022-08-11T02:25:08.456Z,18.02
2022-08-11T02:26:08.455Z,18.00
2022-08-11T02:27:08.452Z,17.97
2022-08-11T02:28:08.426Z,17.94
2022-08-11T02:29:08.397Z,17.95
2022-08-11T02:30:08.391Z,17.91
2022-08-11T02:31:09.432Z,17.93
2022-08-11T02:32:24.981Z,17.91
2022-08-11T02:33:09.348Z,17.90
2022-08-11T02:34:08.338Z,17.91
2022-08-11T02:35:08.319Z,17.90
2022-08-11T02:36:08.309Z,17.88
2022-08-11T02:37:08.306Z,17.86
2022-08-11T02:38:08.286Z,17.88
2022-08-11T02:39:08.321Z,17.87
2022-08-11T02:40:08.260Z,17.84
2022-08-11T02:41:08.237Z,17.84
2022-08-11T02:42:08.247Z,17.82
2022-08-11T02:43:09.219Z,17.76
2022-08-11T02:44:08.201Z,17.73
2022-08-11T02:45:08.188Z,17.72
2022-08-11T02:46:08.182Z,17.72
2022-08-11T02:47:09.179Z,17.72
2022-08-11T02:48:08.150Z,17.68
2022-08-11T02:49:08.172Z,17.63
2022-08-11T02:50:08.133Z,17.59
2022-08-11T02:51:08.101Z,17.53
2022-08-11T02:52:08.109Z,17.49
2022-08-11T02:53:08.081Z,17.46
2022-08-11T02:54:08.061Z,17.42
2022-08-11T02:55:08.056Z,17.39
2022-08-11T02:56:08.033Z,17.38
2022-08-11T02:57:11.491Z,17.35
2022-08-11T02:58:08.011Z,17.31
2022-08-11T02:59:08.002Z,17.27
2022-08-11T03:00:07.989Z,17.23
2022-08-11T03:01:07.974Z,17.19
2022-08-11T03:02:08.056Z,17.19
2022-08-11T03:03:07.953Z,17.17
2022-08-11T03:04:07.926Z,17.19
2022-08-11T03:05:07.922Z,17.19
2022-08-11T03:06:07.892Z,17.19
2022-08-11T03:07:28.007Z,17.19
2022-08-11T03:08:08.874Z,17.19
2022-08-11T03:09:07.872Z,17.20
2022-08-11T03:10:07.863Z,17.19
2022-08-11T03:11:07.846Z,17.20
2022-08-11T03:12:07.832Z,17.19
2022-08-11T03:13:07.814Z,17.19
2022-08-11T03:14:07.792Z,17.20
2022-08-11T03:15:07.787Z,17.16
2022-08-11T03:16:07.765Z,17.14
2022-08-11T03:17:07.772Z,17.12
2022-08-11T03:18:07.743Z,17.12
2022-08-11T03:19:07.731Z,17.12
2022-08-11T03:20:07.716Z,17.09
2022-08-11T03:21:07.704Z,17.09
2022-08-11T03:22:07.685Z,17.07
2022-08-11T03:23:19.769Z,17.04
2022-08-11T03:24:08.660Z,16.99
2022-08-11T03:25:12.380Z,16.97
2022-08-11T03:26:08.621Z,16.86
2022-08-11T03:27:07.613Z,16.76
2022-08-11T03:28:07.602Z,16.73
2022-08-11T03:29:07.584Z,16.74
2022-08-11T03:30:07.575Z,16.76
2022-08-11T03:31:07.551Z,16.79
2022-08-11T03:32:15.681Z,16.76
2022-08-11T03:33:07.517Z,16.76
2022-08-11T03:34:08.366Z,16.72
2022-08-11T03:35:07.476Z,16.66
2022-08-11T03:36:07.457Z,16.66
2022-08-11T03:37:17.348Z,16.68
2022-08-11T03:38:08.445Z,16.65
2022-08-11T03:39:07.463Z,16.61
2022-08-11T03:40:07.456Z,16.55
2022-08-11T03:41:50.241Z,16.49
2022-08-11T03:42:10.241Z,16.47
2022-08-11T03:43:07.386Z,16.49
2022-08-11T03:44:07.347Z,16.54
2022-08-11T03:45:07.367Z,16.55
2022-08-11T03:46:07.347Z,16.58
2022-08-11T03:47:07.315Z,16.58
2022-08-11T03:48:07.320Z,16.57
2022-08-11T03:49:07.289Z,16.57
2022-08-11T03:50:07.268Z,16.55
2022-08-11T03:51:07.268Z,16.58
2022-08-11T03:52:07.244Z,16.58
2022-08-11T03:53:07.229Z,16.59
2022-08-11T03:54:07.238Z,16.59
2022-08-11T03:55:07.224Z,16.59
2022-08-11T03:56:07.214Z,16.61
2022-08-11T03:57:07.179Z,16.61
2022-08-11T03:58:07.162Z,16.61
2022-08-11T03:59:07.169Z,16.61
2022-08-11T04:00:07.137Z,16.58
2022-08-11T04:01:07.137Z,16.59
2022-08-11T04:02:07.113Z,16.58
2022-08-11T04:03:07.094Z,16.58
2022-08-11T04:04:07.103Z,16.55
2022-08-11T04:05:07.071Z,16.54
2022-08-11T04:06:07.070Z,16.50
2022-08-11T04:07:07.048Z,16.49
2022-08-11T04:08:07.028Z,16.50
2022-08-11T04:09:07.050Z,16.46
2022-08-11T04:10:07.010Z,16.43
2022-08-11T04:11:06.989Z,16.41
2022-08-11T04:12:06.998Z,16.39
2022-08-11T04:13:06.979Z,16.39
2022-08-11T04:14:06.966Z,16.36
2022-08-11T04:15:06.939Z,16.34
2022-08-11T04:16:12.548Z,16.28
2022-08-11T04:17:07.943Z,16.26
2022-08-11T04:18:06.907Z,16.25
2022-08-11T04:19:06.917Z,16.26
2022-08-11T04:20:06.894Z,16.26
2022-08-11T04:21:06.867Z,16.25
2022-08-11T04:22:06.853Z,16.26
2022-08-11T04:23:06.846Z,16.28
2022-08-11T04:24:34.402Z,16.28
2022-08-11T04:25:07.804Z,16.21
2022-08-11T04:26:16.085Z,16.16
2022-08-11T04:27:08.199Z,16.10
2022-08-11T04:28:07.765Z,16.06
2022-08-11T04:29:09.582Z,16.08
2022-08-11T04:30:09.212Z,16.09
2022-08-11T04:31:07.724Z,16.13
2022-08-11T04:32:06.730Z,16.16
2022-08-11T04:33:06.723Z,16.17
2022-08-11T04:34:06.708Z,16.18
2022-08-11T04:35:06.675Z,16.21
2022-08-11T04:36:06.655Z,16.21
2022-08-11T04:37:06.655Z,16.18
2022-08-11T04:38:06.633Z,16.22
2022-08-11T04:39:06.659Z,16.26
2022-08-11T04:40:06.604Z,16.28
2022-08-11T04:41:06.615Z,16.32
2022-08-11T04:42:06.589Z,16.26
2022-08-11T04:43:06.600Z,16.26
2022-08-11T04:44:06.901Z,16.25
2022-08-11T04:45:06.554Z,16.22
2022-08-11T04:46:06.531Z,16.21
2022-08-11T04:47:06.515Z,16.21
2022-08-11T04:48:06.506Z,16.21
2022-08-11T04:49:06.525Z,16.22
2022-08-11T04:50:06.466Z,16.22
2022-08-11T04:51:17.080Z,16.21
2022-08-11T04:52:07.436Z,16.21
2022-08-11T04:53:06.436Z,16.21
2022-08-11T04:54:06.447Z,16.18
2022-08-11T04:55:06.406Z,16.22
2022-08-11T04:56:06.387Z,16.24
2022-08-11T04:57:06.377Z,16.25
2022-08-11T04:58:06.366Z,16.28
2022-08-11T04:59:06.381Z,16.29
2022-08-11T05:00:06.349Z,16.34
2022-08-11T05:01:06.385Z,16.37
2022-08-11T05:02:06.339Z,16.39
2022-08-11T05:03:07.305Z,16.41
2022-08-11T05:04:06.300Z,16.44
2022-08-11T05:05:06.289Z,16.44
2022-08-11T05:06:06.258Z,16.47
2022-08-11T05:07:06.249Z,16.50
2022-08-11T05:08:06.229Z,16.55
2022-08-11T05:09:06.235Z,16.59
2022-08-11T05:10:06.303Z,16.64
2022-08-11T05:11:06.185Z,16.66
2022-08-11T05:12:06.170Z,16.69
2022-08-11T05:13:06.187Z,16.73
2022-08-11T05:14:06.187Z,16.73
2022-08-11T05:15:06.149Z,16.76
2022-08-11T05:16:06.190Z,16.79
2022-08-11T05:17:06.126Z,16.79
2022-08-11T05:18:06.098Z,16.80
2022-08-11T05:19:06.111Z,16.79
2022-08-11T05:20:06.070Z,16.77
2022-08-11T05:21:06.058Z,16.76
2022-08-11T05:22:06.039Z,16.76
2022-08-11T05:23:06.038Z,16.76
2022-08-11T05:24:06.030Z,16.76
2022-08-11T05:25:06.009Z,16.76
2022-08-11T05:26:43.096Z,16.77
2022-08-11T05:27:12.871Z,16.77
2022-08-11T05:28:06.959Z,16.80
2022-08-11T05:29:19.440Z,16.82
2022-08-11T05:30:06.941Z,16.83
2022-08-11T05:31:05.920Z,16.84
2022-08-11T05:32:05.908Z,16.87
2022-08-11T05:33:05.901Z,16.86
2022-08-11T05:34:05.901Z,16.91
2022-08-11T05:35:05.888Z,16.92
2022-08-11T05:36:05.860Z,16.94
2022-08-11T05:37:25.116Z,16.97
2022-08-11T05:38:06.841Z,16.99
2022-08-11T05:39:05.851Z,17.02
2022-08-11T05:40:05.900Z,17.01
2022-08-11T05:41:05.800Z,17.04
2022-08-11T05:42:05.783Z,17.04
2022-08-11T05:43:05.769Z,17.05
2022-08-11T05:44:21.369Z,17.07
2022-08-11T05:45:15.290Z,17.09
2022-08-11T05:46:10.147Z,17.12
2022-08-11T05:47:06.722Z,17.13
2022-08-11T05:48:05.702Z,17.17
2022-08-11T05:49:05.722Z,17.19
2022-08-11T05:50:05.680Z,17.22
2022-08-11T05:51:10.389Z,17.22
2022-08-11T05:52:16.267Z,17.27
2022-08-11T05:53:09.256Z,17.27
2022-08-11T05:54:06.642Z,17.30
2022-08-11T05:55:07.377Z,17.32
2022-08-11T05:56:05.593Z,17.34
2022-08-11T05:57:05.583Z,17.35
2022-08-11T05:58:05.563Z,17.38
2022-08-11T05:59:05.573Z,17.41
2022-08-11T06:00:05.587Z,17.44
2022-08-11T06:01:05.598Z,17.47
2022-08-11T06:02:05.575Z,17.47
2022-08-11T06:03:05.501Z,17.49
2022-08-11T06:04:05.513Z,17.50
2022-08-11T06:05:05.476Z,17.52
2022-08-11T06:06:05.465Z,17.54
2022-08-11T06:07:05.445Z,17.54
2022-08-11T06:08:05.443Z,17.54
2022-08-11T06:09:05.434Z,17.56
2022-08-11T06:10:05.417Z,17.57
2022-08-11T06:11:05.394Z,17.59
2022-08-11T06:12:05.388Z,17.63
2022-08-11T06:13:05.396Z,17.68
2022-08-11T06:14:05.374Z,17.69
2022-08-11T06:15:05.346Z,17.73
2022-08-11T06:16:07.118Z,17.78
2022-08-11T06:17:05.315Z,17.86
2022-08-11T06:18:05.295Z,17.90
2022-08-11T06:19:05.313Z,17.94
2022-08-11T06:20:07.197Z,17.98
2022-08-11T06:21:05.290Z,18.00
2022-08-11T06:22:05.247Z,18.03
2022-08-11T06:23:05.235Z,18.06
2022-08-11T06:24:05.259Z,18.12
2022-08-11T06:25:05.224Z,18.16
2022-08-11T06:26:05.188Z,18.21
2022-08-11T06:27:13.631Z,18.24
2022-08-11T06:28:06.163Z,18.28
2022-08-11T06:29:05.176Z,18.31
2022-08-11T06:30:05.134Z,18.36
2022-08-11T06:31:05.127Z,18.42
2022-08-11T06:32:05.107Z,18.43
2022-08-11T06:33:05.208Z,18.46
2022-08-11T06:34:05.098Z,18.51
2022-08-11T06:35:05.073Z,18.53
2022-08-11T06:36:05.047Z,18.58
2022-08-11T06:37:05.047Z,18.66
2022-08-11T06:38:05.027Z,18.70
2022-08-11T06:39:05.026Z,18.73
2022-08-11T06:40:04.996Z,18.79
2022-08-11T06:41:04.985Z,18.83
2022-08-11T06:42:04.977Z,18.89
2022-08-11T06:43:04.958Z,18.94
2022-08-11T06:44:05.595Z,19.00
2022-08-11T06:45:04.926Z,19.07
2022-08-11T06:46:04.944Z,19.11
2022-08-11T06:47:04.897Z,19.19
2022-08-11T06:48:04.905Z,19.26
2022-08-11T06:49:04.889Z,19.29
2022-08-11T06:50:04.875Z,19.35
2022-08-11T06:51:04.848Z,19.38
2022-08-11T06:52:04.910Z,19.42
2022-08-11T06:53:04.830Z,19.45
2022-08-11T06:54:05.816Z,19.52
2022-08-11T06:55:04.808Z,19.60
2022-08-11T06:56:04.777Z,19.70
2022-08-11T06:58:05.973Z,19.79
2022-08-11T06:59:04.780Z,19.82
2022-08-11T07:00:04.752Z,19.87
2022-08-11T07:01:04.917Z,19.96
2022-08-11T07:02:04.701Z,20.00
2022-08-11T07:03:04.699Z,20.03
2022-08-11T07:04:04.687Z,20.10
2022-08-11T07:05:04.672Z,20.17
2022-08-11T07:06:04.674Z,20.21
2022-08-11T07:07:04.660Z,20.27
2022-08-11T07:08:33.199Z,20.33
2022-08-11T07:09:05.622Z,20.37
2022-08-11T07:10:04.599Z,20.44
2022-08-11T07:11:04.606Z,20.52
2022-08-11T07:12:04.575Z,20.55
2022-08-11T07:13:04.563Z,20.58
2022-08-11T07:14:04.574Z,20.67
2022-08-11T07:15:04.523Z,20.73
2022-08-11T07:16:12.315Z,20.77
2022-08-11T07:17:05.492Z,20.82
2022-08-11T07:18:04.482Z,20.90
2022-08-11T07:19:04.478Z,20.98
2022-08-11T07:20:04.464Z,21.05
2022-08-11T07:21:04.432Z,21.11
2022-08-11T07:22:05.422Z,21.17
2022-08-11T07:23:04.412Z,21.22
2022-08-11T07:24:04.421Z,21.29
2022-08-11T07:25:04.379Z,21.30
2022-08-11T07:26:04.376Z,21.33
2022-08-11T07:27:04.354Z,21.37
2022-08-11T07:28:04.344Z,21.41
2022-08-11T07:29:04.343Z,21.47
2022-08-11T07:30:04.384Z,21.53
2022-08-11T07:31:04.293Z,21.56
2022-08-11T07:32:04.303Z,21.59
2022-08-11T07:33:04.273Z,21.62
2022-08-11T07:34:06.375Z,21.66
2022-08-11T07:35:05.243Z,21.70
2022-08-11T07:36:04.258Z,21.75
2022-08-11T07:37:04.223Z,21.78
2022-08-11T07:38:06.857Z,21.83
2022-08-11T07:39:04.205Z,21.85
2022-08-11T07:40:04.187Z,21.89
2022-08-11T07:41:04.184Z,21.94
2022-08-11T07:42:04.154Z,21.99
2022-08-11T07:43:04.135Z,22.01
2022-08-11T07:44:04.145Z,22.03
2022-08-11T07:45:04.115Z,22.03
2022-08-11T07:46:04.095Z,22.07
2022-08-11T07:47:04.086Z,22.10
2022-08-11T07:48:04.084Z,22.12
2022-08-11T07:49:04.075Z,22.14
2022-08-11T07:50:04.056Z,22.16
2022-08-11T07:51:04.037Z,22.18
2022-08-11T07:52:04.025Z,22.21
2022-08-11T07:53:04.004Z,22.23
2022-08-11T07:54:17.160Z,22.26
2022-08-11T07:55:04.975Z,22.26
2022-08-11T07:56:03.966Z,22.30
2022-08-11T07:57:09.435Z,22.33
2022-08-11T07:58:16.500Z,22.36
2022-08-11T07:59:08.415Z,22.38
2022-08-11T08:00:05.094Z,22.40
2022-08-11T08:01:04.019Z,22.43
2022-08-11T08:02:04.941Z,22.44
2022-08-11T08:03:03.873Z,22.47
2022-08-11T08:04:03.862Z,22.49
2022-08-11T08:05:03.858Z,22.52
2022-08-11T08:06:03.835Z,22.55
2022-08-11T08:07:03.819Z,22.58
2022-08-11T08:08:03.809Z,22.61
2022-08-11T08:09:03.790Z,22.63
2022-08-11T08:10:03.797Z,22.70
2022-08-11T08:11:03.759Z,22.77
2022-08-11T08:12:03.759Z,22.84
2022-08-11T08:13:04.749Z,22.92
2022-08-11T08:14:03.731Z,22.98
2022-08-11T08:15:03.730Z,23.02
2022-08-11T08:16:03.701Z,23.06
2022-08-11T08:17:03.681Z,23.06
2022-08-11T08:18:09.237Z,23.10
2022-08-11T08:19:04.650Z,23.10
2022-08-11T08:20:03.660Z,23.13
2022-08-11T08:21:03.629Z,23.17
2022-08-11T08:22:34.621Z,23.21
2022-08-11T08:23:04.601Z,23.25
2022-08-11T08:24:03.593Z,23.28
2022-08-11T08:25:03.599Z,23.32
2022-08-11T08:26:03.570Z,23.36
2022-08-11T08:27:03.551Z,23.44
2022-08-11T08:28:03.542Z,23.47
2022-08-11T08:29:03.529Z,23.51
2022-08-11T08:30:03.534Z,23.55
2022-08-11T08:31:03.492Z,23.63
2022-08-11T08:32:03.492Z,23.69
2022-08-11T08:33:03.544Z,23.74
2022-08-11T08:34:03.463Z,23.82
2022-08-11T08:35:03.469Z,23.88
2022-08-11T08:36:03.441Z,23.94
2022-08-11T08:37:03.420Z,24.04
2022-08-11T08:38:04.412Z,24.09
2022-08-11T08:39:03.391Z,24.13
2022-08-11T08:40:03.403Z,24.21
2022-08-11T08:41:03.363Z,24.25
2022-08-11T08:42:03.353Z,24.26
2022-08-11T08:43:03.333Z,24.31
2022-08-11T08:44:27.809Z,24.36
2022-08-11T08:45:04.324Z,24.37
2022-08-11T08:46:03.301Z,24.37
2022-08-11T08:47:03.281Z,24.41
2022-08-11T08:48:03.273Z,24.46
2022-08-11T08:49:03.254Z,24.47
2022-08-11T08:50:03.265Z,24.48
2022-08-11T08:51:03.224Z,24.55
2022-08-11T08:52:29.459Z,24.58
2022-08-11T08:53:04.197Z,24.61
2022-08-11T08:54:03.193Z,24.61
2022-08-11T08:55:03.176Z,24.63
2022-08-11T08:56:03.185Z,24.63
2022-08-11T08:57:03.146Z,24.63
2022-08-11T08:58:03.160Z,24.66
2022-08-11T08:59:03.135Z,24.68
2022-08-11T09:00:03.120Z,24.71
2022-08-11T09:01:03.149Z,24.78
2022-08-11T09:02:03.078Z,24.82
2022-08-11T09:03:22.797Z,24.89
2022-08-11T09:04:11.245Z,24.92
2022-08-11T09:05:04.239Z,24.93
2022-08-11T09:06:03.087Z,24.93
2022-08-11T09:07:03.008Z,24.94
2022-08-11T09:08:03.057Z,24.94
2022-08-11T09:09:03.204Z,24.94
2022-08-11T09:10:02.978Z,25.00
2022-08-11T09:11:03.259Z,25.06
2022-08-11T09:12:02.949Z,25.11
2022-08-11T09:13:03.157Z,25.15
2022-08-11T09:14:06.594Z,25.24
2022-08-11T09:15:02.929Z,25.31
2022-08-11T09:16:02.927Z,25.39
2022-08-11T09:17:02.879Z,25.44
2022-08-11T09:18:02.869Z,25.49
2022-08-11T09:19:02.861Z,25.52
2022-08-11T09:20:02.839Z,25.55
2022-08-11T09:21:02.851Z,25.59
2022-08-11T09:22:02.812Z,25.62
2022-08-11T09:23:54.520Z,25.63
2022-08-11T09:24:12.164Z,25.63
2022-08-11T09:25:03.770Z,25.63
2022-08-11T09:26:02.790Z,25.66
2022-08-11T09:27:02.749Z,25.68
2022-08-11T09:28:02.758Z,25.74
2022-08-11T09:29:02.722Z,25.76
2022-08-11T09:30:02.702Z,25.80
2022-08-11T09:31:03.042Z,25.81
2022-08-11T09:32:02.694Z,25.86
2022-08-11T09:33:02.670Z,25.92
2022-08-11T09:34:02.651Z,25.93
2022-08-11T09:35:02.632Z,25.96
2022-08-11T09:36:02.651Z,25.98
2022-08-11T09:37:02.609Z,25.98
2022-08-11T09:38:03.072Z,26.01
2022-08-11T09:39:02.583Z,26.06
2022-08-11T09:40:02.573Z,26.08
2022-08-11T09:41:02.562Z,26.15
2022-08-11T09:42:04.151Z,26.18
2022-08-11T09:43:02.529Z,26.22
2022-08-11T09:44:04.357Z,26.26
2022-08-11T09:45:02.641Z,26.29
2022-08-11T09:46:02.513Z,26.30
2022-08-11T09:47:02.474Z,26.30
2022-08-11T09:48:02.463Z,26.30
2022-08-11T09:49:02.479Z,26.30
2022-08-11T09:50:02.640Z,26.29
2022-08-11T09:51:02.441Z,26.30
2022-08-11T09:52:05.600Z,26.30
2022-08-11T09:53:36.456Z,26.33
2022-08-11T09:54:03.986Z,26.34
2022-08-11T09:55:02.399Z,26.41
2022-08-11T09:56:02.375Z,26.44
2022-08-11T09:57:05.380Z,26.46
2022-08-11T09:58:02.328Z,26.49
2022-08-11T09:59:02.307Z,26.51
2022-08-11T10:00:12.299Z,26.53
2022-08-11T10:01:03.436Z,26.55
2022-08-11T10:02:02.276Z,26.55
2022-08-11T10:03:02.263Z,26.59
2022-08-11T10:04:02.247Z,26.56
2022-08-11T10:05:02.239Z,26.55
2022-08-11T10:06:07.334Z,26.55
2022-08-11T10:07:04.468Z,26.56
2022-08-11T10:08:02.198Z,26.55
2022-08-11T10:09:02.281Z,26.51
2022-08-11T10:10:02.175Z,26.55
2022-08-11T10:11:02.178Z,26.55
2022-08-11T10:12:02.148Z,26.53
2022-08-11T10:13:02.133Z,26.52
2022-08-11T10:14:32.052Z,26.44
2022-08-11T10:15:03.105Z,26.34
2022-08-11T10:16:15.953Z,26.31
2022-08-11T10:17:03.082Z,26.39
2022-08-11T10:18:03.043Z,26.46
2022-08-11T10:19:02.208Z,26.55
2022-08-11T10:20:05.301Z,26.63
2022-08-11T10:21:02.040Z,26.71
2022-08-11T10:22:02.020Z,26.76
2022-08-11T10:23:02.000Z,26.88
2022-08-11T10:24:05.615Z,26.96
2022-08-11T10:25:01.974Z,27.03
2022-08-11T10:26:01.992Z,27.08
2022-08-11T10:27:01.950Z,27.16
2022-08-11T10:28:30.343Z,27.22
2022-08-11T10:29:12.989Z,27.29
2022-08-11T10:30:02.899Z,27.35
2022-08-11T10:31:01.899Z,27.44
2022-08-11T10:32:04.371Z,27.50
2022-08-11T10:33:01.859Z,27.55
2022-08-11T10:34:02.035Z,27.61
2022-08-11T10:35:01.978Z,27.66
2022-08-11T10:36:01.907Z,27.72
2022-08-11T10:37:01.820Z,27.76
2022-08-11T10:38:07.783Z,27.76
2022-08-11T10:39:02.779Z,27.73
2022-08-11T10:40:01.783Z,27.75
2022-08-11T10:41:01.781Z,27.79
2022-08-11T10:42:06.491Z,27.82
2022-08-11T10:43:03.000Z,27.83
2022-08-11T10:44:03.982Z,27.88
2022-08-11T10:45:01.712Z,27.93
2022-08-11T10:46:01.729Z,27.98
2022-08-11T10:47:01.684Z,28.01
2022-08-11T10:48:01.674Z,28.04
2022-08-11T10:49:01.878Z,28.03
2022-08-11T10:50:01.655Z,28.06
2022-08-11T10:51:01.655Z,28.08
2022-08-11T10:52:01.638Z,28.10
2022-08-11T10:53:01.604Z,28.09
2022-08-11T10:54:01.596Z,28.10
2022-08-11T10:55:01.584Z,28.09
2022-08-11T10:56:01.647Z,28.09
2022-08-11T10:57:01.576Z,28.09
2022-08-11T10:58:04.118Z,28.10
2022-08-11T10:59:03.969Z,28.12
2022-08-11T11:00:01.526Z,28.13
2022-08-11T11:01:01.591Z,28.18
2022-08-11T11:02:01.507Z,28.22
2022-08-11T11:03:23.412Z,28.25
2022-08-11T11:04:02.459Z,28.30
2022-08-11T11:05:01.445Z,28.37
2022-08-11T11:06:12.840Z,28.38
2022-08-11T11:07:02.429Z,28.41
2022-08-11T11:08:01.399Z,28.45
2022-08-11T11:09:04.209Z,28.49
2022-08-11T11:10:01.379Z,28.56
2022-08-11T11:11:01.360Z,28.59
2022-08-11T11:12:01.371Z,28.64
2022-08-11T11:13:01.342Z,28.65
2022-08-11T11:14:01.325Z,28.70
2022-08-11T11:15:01.329Z,28.65
2022-08-11T11:16:01.304Z,28.65
2022-08-11T11:17:01.312Z,28.62
2022-08-11T11:18:01.286Z,28.57
2022-08-11T11:19:01.485Z,28.55
2022-08-11T11:20:01.270Z,28.53
2022-08-11T11:21:01.231Z,28.53
2022-08-11T11:22:01.240Z,28.59
2022-08-11T11:23:01.224Z,28.65
2022-08-11T11:24:01.204Z,28.70
2022-08-11T11:25:01.180Z,28.74
2022-08-11T11:26:01.151Z,28.78
2022-08-11T11:27:01.163Z,28.77
2022-08-11T11:28:01.131Z,28.83
2022-08-11T11:29:01.120Z,28.84
2022-08-11T11:30:01.105Z,28.89
2022-08-11T11:31:01.093Z,28.89
2022-08-11T11:32:01.152Z,28.87
2022-08-11T11:33:01.089Z,28.86
2022-08-11T11:34:11.920Z,28.87
2022-08-11T11:35:02.045Z,28.89
2022-08-11T11:36:01.033Z,28.89
2022-08-11T11:37:01.032Z,28.87
2022-08-11T11:38:04.104Z,28.90
2022-08-11T11:39:01.004Z,28.92
2022-08-11T11:40:00.966Z,28.90
2022-08-11T11:41:01.974Z,28.94
2022-08-11T11:42:00.976Z,28.94
2022-08-11T11:43:00.964Z,28.93
2022-08-11T11:44:01.514Z,28.92
2022-08-11T11:45:01.616Z,28.94
2022-08-11T11:46:00.905Z,28.97
2022-08-11T11:47:00.897Z,29.02
2022-08-11T11:48:00.856Z,29.03
2022-08-11T11:49:00.872Z,29.05
2022-08-11T11:50:00.835Z,29.12
2022-08-11T11:51:00.863Z,29.16
2022-08-11T11:52:00.827Z,29.24
2022-08-11T11:53:00.795Z,29.30
2022-08-11T11:54:00.801Z,29.34
2022-08-11T11:55:00.770Z,29.37
2022-08-11T11:56:00.766Z,29.37
2022-08-11T11:57:00.784Z,29.42
2022-08-11T11:58:02.818Z,29.50
2022-08-11T11:59:00.724Z,29.49
2022-08-11T12:00:00.754Z,29.49
2022-08-11T12:01:00.689Z,29.52
2022-08-11T12:02:00.696Z,29.49
2022-08-11T12:03:01.685Z,29.50
2022-08-11T12:04:00.650Z,29.55
2022-08-11T12:05:00.655Z,29.58
2022-08-11T12:06:00.621Z,29.55
2022-08-11T12:07:00.608Z,29.55
2022-08-11T12:08:10.325Z,29.57
2022-08-11T12:09:01.589Z,29.62
2022-08-11T12:10:00.569Z,29.68
2022-08-11T12:11:00.565Z,29.74
2022-08-11T12:12:00.543Z,29.74
2022-08-11T12:13:00.556Z,29.73
2022-08-11T12:14:00.519Z,29.73
2022-08-11T12:15:00.531Z,29.69
2022-08-11T12:16:32.298Z,29.71
2022-08-11T12:17:01.492Z,29.71
2022-08-11T12:18:00.474Z,29.69
2022-08-11T12:19:00.463Z,29.67
2022-08-11T12:20:01.732Z,29.68
2022-08-11T12:21:00.431Z,29.69
2022-08-11T12:22:01.161Z,29.74
2022-08-11T12:23:00.437Z,29.74
2022-08-11T12:24:04.221Z,29.74
2022-08-11T12:25:00.383Z,29.80
2022-08-11T12:26:25.351Z,29.84
2022-08-11T12:27:16.452Z,29.84
2022-08-11T12:28:01.352Z,29.86
2022-08-11T12:29:00.330Z,29.84
2022-08-11T12:30:00.328Z,29.84
2022-08-11T12:31:00.301Z,29.87
2022-08-11T12:32:00.292Z,29.90
2022-08-11T12:33:00.297Z,29.87
2022-08-11T12:34:00.254Z,29.92
2022-08-11T12:35:00.278Z,29.98
2022-08-11T12:36:01.107Z,29.96
2022-08-11T12:37:00.215Z,29.94
2022-08-11T12:38:03.703Z,29.96
2022-08-11T12:39:01.207Z,30.02
2022-08-11T12:40:10.872Z,30.03
2022-08-11T12:41:16.857Z,30.06
2022-08-11T12:42:01.177Z,30.11
2022-08-11T12:43:00.177Z,30.13
2022-08-11T12:44:00.126Z,30.16
2022-08-11T12:45:00.138Z,30.21
2022-08-11T12:46:00.108Z,30.32
2022-08-11T12:47:00.093Z,30.35
2022-08-11T12:48:57.292Z,30.39
2022-08-11T12:49:02.432Z,30.44
2022-08-11T12:50:00.056Z,30.54
2022-08-11T12:51:00.038Z,30.59
2022-08-11T12:52:12.417Z,30.59
2022-08-11T12:53:01.029Z,30.56